sensor_id;sensor_type;location;lat;lon;timestamp;P1;durP1;ratioP1;P2;durP2;ratioP2
76597;SDS011;65486;53.144;18.134;2022-12-28T00:01:27;14.50;;;5.70;;
76597;SDS011;65486;53.144;18.134;2022-12-28T00:03:57;13.00;;;6.10;;
76597;SDS011;65486;53.144;18.134;2022-12-28T00:06:26;15.10;;;6.50;;
76597;SDS011;65486;53.144;18.134;2022-12-28T00:08:55;13.10;;;5.90;;
76597;SDS011;65486;53.144;18.134;2022-12-28T00:11:23;15.50;;;5.60;;
76597;SDS011;65486;53.144;18.134;2022-12-28T00:13:53;19.10;;;7.00;;
76597;SDS011;65486;53.144;18.134;2022-12-28T00:16:38;13.20;;;6.00;;
76597;SDS011;65486;53.144;18.134;2022-12-28T00:19:18;13.90;;;6.10;;
76597;SDS011;65486;53.144;18.134;2022-12-28T00:21:47;14.80;;;6.50;;
76597;SDS011;65486;53.144;18.134;2022-12-28T00:24:18;16.10;;;6.20;;
76597;SDS011;65486;53.144;18.134;2022-12-28T00:26:50;16.80;;;6.20;;
76597;SDS011;65486;53.144;18.134;2022-12-28T00:29:17;13.00;;;6.00;;
76597;SDS011;65486;53.144;18.134;2022-12-28T00:31:44;15.90;;;6.70;;
76597;SDS011;65486;53.144;18.134;2022-12-28T00:34:12;19.20;;;7.10;;
76597;SDS011;65486;53.144;18.134;2022-12-28T00:36:40;17.20;;;7.20;;
76597;SDS011;65486;53.144;18.134;2022-12-28T00:39:09;19.80;;;7.20;;
76597;SDS011;65486;53.144;18.134;2022-12-28T00:41:36;15.80;;;6.80;;
76597;SDS011;65486;53.144;18.134;2022-12-28T00:44:03;16.40;;;7.10;;
76597;SDS011;65486;53.144;18.134;2022-12-28T00:46:31;16.80;;;7.10;;
76597;SDS011;65486;53.144;18.134;2022-12-28T00:48:58;18.10;;;8.10;;
76597;SDS011;65486;53.144;18.134;2022-12-28T00:51:26;17.20;;;7.50;;
76597;SDS011;65486;53.144;18.134;2022-12-28T00:53:54;15.90;;;7.70;;
76597;SDS011;65486;53.144;18.134;2022-12-28T00:56:21;15.50;;;5.90;;
76597;SDS011;65486;53.144;18.134;2022-12-28T00:58:55;16.70;;;7.60;;
76597;SDS011;65486;53.144;18.134;2022-12-28T01:01:32;13.40;;;6.80;;
76597;SDS011;65486;53.144;18.134;2022-12-28T01:04:00;18.80;;;7.30;;
76597;SDS011;65486;53.144;18.134;2022-12-28T01:06:30;20.40;;;8.00;;
76597;SDS011;65486;53.144;18.134;2022-12-28T01:09:02;15.80;;;6.80;;
76597;SDS011;65486;53.144;18.134;2022-12-28T01:11:32;22.10;;;8.10;;
76597;SDS011;65486;53.144;18.134;2022-12-28T01:14:03;18.70;;;8.50;;
76597;SDS011;65486;53.144;18.134;2022-12-28T01:16:31;19.20;;;8.00;;
76597;SDS011;65486;53.144;18.134;2022-12-28T01:19:00;21.70;;;7.90;;
76597;SDS011;65486;53.144;18.134;2022-12-28T01:21:30;16.20;;;7.30;;
76597;SDS011;65486;53.144;18.134;2022-12-28T01:24:00;23.30;;;9.00;;
76597;SDS011;65486;53.144;18.134;2022-12-28T01:26:32;21.00;;;8.60;;
76597;SDS011;65486;53.144;18.134;2022-12-28T01:29:02;15.00;;;6.90;;
76597;SDS011;65486;53.144;18.134;2022-12-28T01:31:32;14.70;;;6.60;;
76597;SDS011;65486;53.144;18.134;2022-12-28T01:34:00;26.80;;;9.10;;
76597;SDS011;65486;53.144;18.134;2022-12-28T01:36:29;19.00;;;9.40;;
76597;SDS011;65486;53.144;18.134;2022-12-28T01:38:59;20.40;;;9.50;;
76597;SDS011;65486;53.144;18.134;2022-12-28T01:41:32;21.30;;;9.10;;
76597;SDS011;65486;53.144;18.134;2022-12-28T01:49:07;23.50;;;9.00;;
76597;SDS011;65486;53.144;18.134;2022-12-28T01:51:44;22.10;;;9.10;;
76597;SDS011;65486;53.144;18.134;2022-12-28T01:54:16;19.20;;;8.50;;
76597;SDS011;65486;53.144;18.134;2022-12-28T01:56:47;19.50;;;7.90;;
76597;SDS011;65486;53.144;18.134;2022-12-28T01:59:15;31.00;;;11.20;;
76597;SDS011;65486;53.144;18.134;2022-12-28T02:01:44;21.40;;;9.90;;
76597;SDS011;65486;53.144;18.134;2022-12-28T02:04:12;16.50;;;8.00;;
76597;SDS011;65486;53.144;18.134;2022-12-28T02:06:44;21.50;;;8.30;;
76597;SDS011;65486;53.144;18.134;2022-12-28T02:09:14;24.60;;;9.90;;
76597;SDS011;65486;53.144;18.134;2022-12-28T02:11:47;27.50;;;11.50;;
76597;SDS011;65486;53.144;18.134;2022-12-28T02:14:15;24.10;;;9.00;;
76597;SDS011;65486;53.144;18.134;2022-12-28T02:16:44;20.40;;;8.60;;
76597;SDS011;65486;53.144;18.134;2022-12-28T02:19:12;24.90;;;10.70;;
76597;SDS011;65486;53.144;18.134;2022-12-28T02:21:57;23.70;;;10.30;;
76597;SDS011;65486;53.144;18.134;2022-12-28T02:30:42;31.60;;;11.90;;
76597;SDS011;65486;53.144;18.134;2022-12-28T02:33:23;25.70;;;10.80;;
76597;SDS011;65486;53.144;18.134;2022-12-28T02:36:04;19.30;;;8.50;;
76597;SDS011;65486;53.144;18.134;2022-12-28T02:38:46;20.30;;;9.50;;
76597;SDS011;65486;53.144;18.134;2022-12-28T02:41:23;28.00;;;12.10;;
76597;SDS011;65486;53.144;18.134;2022-12-28T02:43:57;23.10;;;10.10;;
76597;SDS011;65486;53.144;18.134;2022-12-28T02:46:30;17.50;;;9.00;;
76597;SDS011;65486;53.144;18.134;2022-12-28T03:07:05;24.30;;;9.80;;
76597;SDS011;65486;53.144;18.134;2022-12-28T03:12:32;24.00;;;10.70;;
76597;SDS011;65486;53.144;18.134;2022-12-28T03:15:18;18.80;;;9.20;;
76597;SDS011;65486;53.144;18.134;2022-12-28T03:20:58;32.40;;;14.70;;
76597;SDS011;65486;53.144;18.134;2022-12-28T03:23:51;34.80;;;14.90;;
76597;SDS011;65486;53.144;18.134;2022-12-28T03:26:41;39.50;;;15.90;;
76597;SDS011;65486;53.144;18.134;2022-12-28T03:29:36;28.30;;;13.60;;
76597;SDS011;65486;53.144;18.134;2022-12-28T03:32:29;25.60;;;12.10;;
76597;SDS011;65486;53.144;18.134;2022-12-28T03:34:56;50.20;;;21.70;;
76597;SDS011;65486;53.144;18.134;2022-12-28T03:37:31;47.20;;;21.90;;
76597;SDS011;65486;53.144;18.134;2022-12-28T03:40:10;31.90;;;16.40;;
76597;SDS011;65486;53.144;18.134;2022-12-28T03:42:48;29.00;;;13.80;;
76597;SDS011;65486;53.144;18.134;2022-12-28T03:45:45;48.50;;;19.50;;
76597;SDS011;65486;53.144;18.134;2022-12-28T03:48:19;43.20;;;20.30;;
76597;SDS011;65486;53.144;18.134;2022-12-28T03:50:50;34.90;;;16.80;;
76597;SDS011;65486;53.144;18.134;2022-12-28T03:53:25;32.30;;;14.00;;
76597;SDS011;65486;53.144;18.134;2022-12-28T03:56:07;28.90;;;12.00;;
76597;SDS011;65486;53.144;18.134;2022-12-28T03:58:49;37.70;;;16.40;;
76597;SDS011;65486;53.144;18.134;2022-12-28T04:01:19;27.90;;;13.30;;
76597;SDS011;65486;53.144;18.134;2022-12-28T04:03:46;27.40;;;11.80;;
76597;SDS011;65486;53.144;18.134;2022-12-28T04:06:14;34.90;;;15.20;;
76597;SDS011;65486;53.144;18.134;2022-12-28T04:08:44;31.60;;;15.70;;
76597;SDS011;65486;53.144;18.134;2022-12-28T04:11:13;32.80;;;15.10;;
76597;SDS011;65486;53.144;18.134;2022-12-28T04:13:42;27.40;;;12.80;;
76597;SDS011;65486;53.144;18.134;2022-12-28T04:16:13;22.20;;;10.80;;
76597;SDS011;65486;53.144;18.134;2022-12-28T04:18:41;34.30;;;14.90;;
76597;SDS011;65486;53.144;18.134;2022-12-28T04:21:09;32.60;;;15.20;;
76597;SDS011;65486;53.144;18.134;2022-12-28T04:23:44;27.70;;;15.00;;
76597;SDS011;65486;53.144;18.134;2022-12-28T04:26:20;23.00;;;10.70;;
76597;SDS011;65486;53.144;18.134;2022-12-28T04:28:49;21.60;;;10.30;;
76597;SDS011;65486;53.144;18.134;2022-12-28T04:31:35;16.50;;;6.30;;
76597;SDS011;65486;53.144;18.134;2022-12-28T04:34:23;30.70;;;13.60;;
76597;SDS011;65486;53.144;18.134;2022-12-28T04:36:59;30.90;;;13.90;;
76597;SDS011;65486;53.144;18.134;2022-12-28T04:39:27;27.00;;;13.80;;
76597;SDS011;65486;53.144;18.134;2022-12-28T04:41:56;30.20;;;12.80;;
76597;SDS011;65486;53.144;18.134;2022-12-28T04:44:26;20.10;;;10.20;;
76597;SDS011;65486;53.144;18.134;2022-12-28T04:46:52;22.70;;;9.90;;
76597;SDS011;65486;53.144;18.134;2022-12-28T04:49:19;24.00;;;10.50;;
76597;SDS011;65486;53.144;18.134;2022-12-28T04:51:46;30.10;;;16.10;;
76597;SDS011;65486;53.144;18.134;2022-12-28T04:54:13;38.10;;;19.20;;
76597;SDS011;65486;53.144;18.134;2022-12-28T04:56:40;31.40;;;15.20;;
76597;SDS011;65486;53.144;18.134;2022-12-28T04:59:08;28.30;;;14.20;;
76597;SDS011;65486;53.144;18.134;2022-12-28T05:01:34;33.00;;;16.10;;
76597;SDS011;65486;53.144;18.134;2022-12-28T05:04:02;30.00;;;17.00;;
76597;SDS011;65486;53.144;18.134;2022-12-28T05:06:31;21.10;;;11.80;;
76597;SDS011;65486;53.144;18.134;2022-12-28T05:09:00;21.30;;;10.50;;
76597;SDS011;65486;53.144;18.134;2022-12-28T05:11:27;25.60;;;12.90;;
76597;SDS011;65486;53.144;18.134;2022-12-28T05:13:55;26.80;;;13.40;;
76597;SDS011;65486;53.144;18.134;2022-12-28T05:16:24;26.50;;;10.80;;
76597;SDS011;65486;53.144;18.134;2022-12-28T05:18:53;21.00;;;11.70;;
76597;SDS011;65486;53.144;18.134;2022-12-28T05:21:23;29.40;;;14.80;;
76597;SDS011;65486;53.144;18.134;2022-12-28T05:23:53;24.30;;;13.70;;
76597;SDS011;65486;53.144;18.134;2022-12-28T05:26:22;21.30;;;10.70;;
76597;SDS011;65486;53.144;18.134;2022-12-28T05:28:51;21.50;;;11.50;;
76597;SDS011;65486;53.144;18.134;2022-12-28T05:31:20;25.90;;;12.00;;
76597;SDS011;65486;53.144;18.134;2022-12-28T05:33:50;22.90;;;12.20;;
76597;SDS011;65486;53.144;18.134;2022-12-28T05:36:22;26.50;;;12.60;;
76597;SDS011;65486;53.144;18.134;2022-12-28T05:38:53;26.20;;;12.00;;
76597;SDS011;65486;53.144;18.134;2022-12-28T05:41:22;26.10;;;13.40;;
76597;SDS011;65486;53.144;18.134;2022-12-28T05:43:55;36.20;;;18.30;;
76597;SDS011;65486;53.144;18.134;2022-12-28T05:46:27;33.70;;;18.10;;
76597;SDS011;65486;53.144;18.134;2022-12-28T05:48:56;30.90;;;18.80;;
76597;SDS011;65486;53.144;18.134;2022-12-28T05:51:27;31.10;;;17.80;;
76597;SDS011;65486;53.144;18.134;2022-12-28T05:53:57;25.10;;;13.10;;
76597;SDS011;65486;53.144;18.134;2022-12-28T05:56:25;29.10;;;12.90;;
76597;SDS011;65486;53.144;18.134;2022-12-28T06:01:29;19.60;;;8.80;;
76597;SDS011;65486;53.144;18.134;2022-12-28T06:04:05;20.80;;;10.50;;
76597;SDS011;65486;53.144;18.134;2022-12-28T06:06:39;16.10;;;8.00;;
76597;SDS011;65486;53.144;18.134;2022-12-28T06:09:06;15.70;;;7.00;;
76597;SDS011;65486;53.144;18.134;2022-12-28T06:11:33;15.70;;;6.30;;
76597;SDS011;65486;53.144;18.134;2022-12-28T06:14:00;18.10;;;7.60;;
76597;SDS011;65486;53.144;18.134;2022-12-28T06:16:31;16.00;;;7.50;;
76597;SDS011;65486;53.144;18.134;2022-12-28T06:19:07;16.10;;;8.60;;
76597;SDS011;65486;53.144;18.134;2022-12-28T06:21:37;19.20;;;10.30;;
76597;SDS011;65486;53.144;18.134;2022-12-28T06:24:05;19.80;;;11.30;;
76597;SDS011;65486;53.144;18.134;2022-12-28T06:26:36;18.20;;;9.20;;
76597;SDS011;65486;53.144;18.134;2022-12-28T06:29:04;16.20;;;7.40;;
76597;SDS011;65486;53.144;18.134;2022-12-28T06:31:32;13.20;;;6.20;;
76597;SDS011;65486;53.144;18.134;2022-12-28T06:34:01;15.70;;;6.90;;
76597;SDS011;65486;53.144;18.134;2022-12-28T06:36:30;13.00;;;7.10;;
76597;SDS011;65486;53.144;18.134;2022-12-28T06:38:59;15.80;;;6.80;;
76597;SDS011;65486;53.144;18.134;2022-12-28T06:41:27;16.60;;;6.40;;
76597;SDS011;65486;53.144;18.134;2022-12-28T06:43:56;15.10;;;6.30;;
76597;SDS011;65486;53.144;18.134;2022-12-28T06:46:27;22.80;;;11.20;;
76597;SDS011;65486;53.144;18.134;2022-12-28T06:48:55;25.40;;;11.60;;
76597;SDS011;65486;53.144;18.134;2022-12-28T06:51:24;28.90;;;14.10;;
76597;SDS011;65486;53.144;18.134;2022-12-28T06:53:53;20.30;;;12.20;;
76597;SDS011;65486;53.144;18.134;2022-12-28T06:56:21;24.50;;;14.00;;
76597;SDS011;65486;53.144;18.134;2022-12-28T06:58:51;25.00;;;14.60;;
76597;SDS011;65486;53.144;18.134;2022-12-28T07:01:20;27.90;;;15.90;;
76597;SDS011;65486;53.144;18.134;2022-12-28T07:03:50;23.70;;;12.60;;
76597;SDS011;65486;53.144;18.134;2022-12-28T07:06:20;25.30;;;13.20;;
76597;SDS011;65486;53.144;18.134;2022-12-28T07:08:51;22.70;;;12.50;;
76597;SDS011;65486;53.144;18.134;2022-12-28T07:11:23;24.10;;;12.50;;
76597;SDS011;65486;53.144;18.134;2022-12-28T07:13:50;22.20;;;10.60;;
76597;SDS011;65486;53.144;18.134;2022-12-28T07:16:18;13.40;;;7.40;;
76597;SDS011;65486;53.144;18.134;2022-12-28T07:18:47;22.10;;;13.70;;
76597;SDS011;65486;53.144;18.134;2022-12-28T07:21:16;22.50;;;13.00;;
76597;SDS011;65486;53.144;18.134;2022-12-28T07:23:51;23.70;;;11.60;;
76597;SDS011;65486;53.144;18.134;2022-12-28T07:26:20;20.40;;;9.30;;
76597;SDS011;65486;53.144;18.134;2022-12-28T07:28:52;14.60;;;7.90;;
76597;SDS011;65486;53.144;18.134;2022-12-28T07:31:22;15.40;;;7.40;;
76597;SDS011;65486;53.144;18.134;2022-12-28T07:34:02;16.20;;;6.20;;
76597;SDS011;65486;53.144;18.134;2022-12-28T07:36:30;15.60;;;6.20;;
76597;SDS011;65486;53.144;18.134;2022-12-28T07:38:58;15.90;;;7.00;;
76597;SDS011;65486;53.144;18.134;2022-12-28T07:41:29;15.40;;;6.60;;
76597;SDS011;65486;53.144;18.134;2022-12-28T07:44:03;19.20;;;7.00;;
76597;SDS011;65486;53.144;18.134;2022-12-28T07:46:32;21.10;;;6.60;;
76597;SDS011;65486;53.144;18.134;2022-12-28T07:49:00;16.30;;;7.60;;
76597;SDS011;65486;53.144;18.134;2022-12-28T07:51:28;18.00;;;7.50;;
76597;SDS011;65486;53.144;18.134;2022-12-28T07:54:00;17.30;;;7.90;;
76597;SDS011;65486;53.144;18.134;2022-12-28T07:56:28;18.00;;;7.10;;
76597;SDS011;65486;53.144;18.134;2022-12-28T07:58:58;14.30;;;6.60;;
76597;SDS011;65486;53.144;18.134;2022-12-28T08:01:31;19.50;;;7.90;;
76597;SDS011;65486;53.144;18.134;2022-12-28T08:04:03;21.50;;;8.20;;
76597;SDS011;65486;53.144;18.134;2022-12-28T08:06:40;19.20;;;7.20;;
76597;SDS011;65486;53.144;18.134;2022-12-28T08:09:09;14.60;;;7.10;;
76597;SDS011;65486;53.144;18.134;2022-12-28T08:11:43;14.30;;;6.90;;
76597;SDS011;65486;53.144;18.134;2022-12-28T08:14:15;17.60;;;8.20;;
76597;SDS011;65486;53.144;18.134;2022-12-28T08:16:42;18.40;;;7.80;;
76597;SDS011;65486;53.144;18.134;2022-12-28T08:19:10;16.40;;;7.50;;
76597;SDS011;65486;53.144;18.134;2022-12-28T08:21:40;17.80;;;7.00;;
76597;SDS011;65486;53.144;18.134;2022-12-28T08:24:14;21.00;;;8.40;;
76597;SDS011;65486;53.144;18.134;2022-12-28T08:26:44;15.80;;;7.50;;
76597;SDS011;65486;53.144;18.134;2022-12-28T08:29:15;16.80;;;7.40;;
76597;SDS011;65486;53.144;18.134;2022-12-28T08:31:44;19.90;;;6.70;;
76597;SDS011;65486;53.144;18.134;2022-12-28T08:34:13;16.60;;;7.40;;
76597;SDS011;65486;53.144;18.134;2022-12-28T08:36:45;18.10;;;7.50;;
76597;SDS011;65486;53.144;18.134;2022-12-28T08:39:12;19.20;;;8.00;;
76597;SDS011;65486;53.144;18.134;2022-12-28T08:41:40;15.00;;;7.20;;
76597;SDS011;65486;53.144;18.134;2022-12-28T08:44:09;17.90;;;7.50;;
76597;SDS011;65486;53.144;18.134;2022-12-28T08:46:37;18.80;;;7.40;;
76597;SDS011;65486;53.144;18.134;2022-12-28T08:49:06;19.80;;;7.50;;
76597;SDS011;65486;53.144;18.134;2022-12-28T08:51:36;17.60;;;7.50;;
76597;SDS011;65486;53.144;18.134;2022-12-28T08:54:07;14.40;;;6.40;;
76597;SDS011;65486;53.144;18.134;2022-12-28T08:56:39;10.40;;;4.80;;
76597;SDS011;65486;53.144;18.134;2022-12-28T08:59:09;22.70;;;7.10;;
76597;SDS011;65486;53.144;18.134;2022-12-28T09:01:39;18.40;;;8.40;;
76597;SDS011;65486;53.144;18.134;2022-12-28T09:04:10;12.40;;;6.80;;
76597;SDS011;65486;53.144;18.134;2022-12-28T09:06:44;14.50;;;5.90;;
76597;SDS011;65486;53.144;18.134;2022-12-28T09:09:13;16.00;;;7.50;;
76597;SDS011;65486;53.144;18.134;2022-12-28T09:11:41;17.70;;;6.40;;
76597;SDS011;65486;53.144;18.134;2022-12-28T09:14:10;20.00;;;8.90;;
76597;SDS011;65486;53.144;18.134;2022-12-28T09:16:39;18.50;;;9.20;;
76597;SDS011;65486;53.144;18.134;2022-12-28T09:19:07;21.30;;;9.40;;
76597;SDS011;65486;53.144;18.134;2022-12-28T09:21:36;11.40;;;5.10;;
76597;SDS011;65486;53.144;18.134;2022-12-28T09:24:05;16.20;;;7.10;;
76597;SDS011;65486;53.144;18.134;2022-12-28T09:29:07;13.00;;;6.70;;
76597;SDS011;65486;53.144;18.134;2022-12-28T09:31:37;13.30;;;6.00;;
76597;SDS011;65486;53.144;18.134;2022-12-28T09:34:08;14.70;;;7.20;;
76597;SDS011;65486;53.144;18.134;2022-12-28T09:36:39;12.70;;;6.30;;
76597;SDS011;65486;53.144;18.134;2022-12-28T09:39:12;16.20;;;6.80;;
76597;SDS011;65486;53.144;18.134;2022-12-28T09:46:58;15.00;;;6.20;;
76597;SDS011;65486;53.144;18.134;2022-12-28T09:52:40;13.40;;;6.00;;
76597;SDS011;65486;53.144;18.134;2022-12-28T09:55:18;16.20;;;6.60;;
76597;SDS011;65486;53.144;18.134;2022-12-28T09:57:47;14.80;;;7.00;;
76597;SDS011;65486;53.144;18.134;2022-12-28T10:00:22;13.90;;;6.30;;
76597;SDS011;65486;53.144;18.134;2022-12-28T10:03:03;12.30;;;6.20;;
76597;SDS011;65486;53.144;18.134;2022-12-28T10:06:10;15.30;;;7.00;;
76597;SDS011;65486;53.144;18.134;2022-12-28T10:08:50;14.40;;;6.20;;
76597;SDS011;65486;53.144;18.134;2022-12-28T10:11:29;14.80;;;6.30;;
76597;SDS011;65486;53.144;18.134;2022-12-28T10:14:21;14.50;;;5.90;;
76597;SDS011;65486;53.144;18.134;2022-12-28T10:17:10;13.00;;;5.30;;
76597;SDS011;65486;53.144;18.134;2022-12-28T10:19:45;13.70;;;6.50;;
76597;SDS011;65486;53.144;18.134;2022-12-28T10:22:15;13.40;;;6.50;;
76597;SDS011;65486;53.144;18.134;2022-12-28T10:24:45;13.80;;;6.70;;
76597;SDS011;65486;53.144;18.134;2022-12-28T10:27:23;14.40;;;6.40;;
76597;SDS011;65486;53.144;18.134;2022-12-28T10:29:55;12.60;;;6.50;;
76597;SDS011;65486;53.144;18.134;2022-12-28T10:32:26;16.00;;;5.80;;
76597;SDS011;65486;53.144;18.134;2022-12-28T10:35:21;11.90;;;5.10;;
76597;SDS011;65486;53.144;18.134;2022-12-28T10:37:50;14.10;;;6.80;;
76597;SDS011;65486;53.144;18.134;2022-12-28T10:40:35;14.40;;;6.00;;
76597;SDS011;65486;53.144;18.134;2022-12-28T10:43:15;15.70;;;7.20;;
76597;SDS011;65486;53.144;18.134;2022-12-28T10:45:46;15.20;;;6.50;;
76597;SDS011;65486;53.144;18.134;2022-12-28T10:48:17;19.20;;;6.70;;
76597;SDS011;65486;53.144;18.134;2022-12-28T10:53:24;14.50;;;7.00;;
76597;SDS011;65486;53.144;18.134;2022-12-28T10:58:41;15.50;;;7.20;;
76597;SDS011;65486;53.144;18.134;2022-12-28T11:06:24;15.50;;;6.20;;
76597;SDS011;65486;53.144;18.134;2022-12-28T11:09:13;9.70;;;4.00;;
76597;SDS011;65486;53.144;18.134;2022-12-28T11:11:43;9.90;;;4.80;;
76597;SDS011;65486;53.144;18.134;2022-12-28T11:19:47;11.90;;;5.00;;
76597;SDS011;65486;53.144;18.134;2022-12-28T11:22:24;13.80;;;5.90;;
76597;SDS011;65486;53.144;18.134;2022-12-28T11:24:55;13.50;;;7.30;;
76597;SDS011;65486;53.144;18.134;2022-12-28T11:27:26;16.20;;;7.20;;
76597;SDS011;65486;53.144;18.134;2022-12-28T11:29:54;14.20;;;7.10;;
76597;SDS011;65486;53.144;18.134;2022-12-28T11:35:23;10.10;;;5.60;;
76597;SDS011;65486;53.144;18.134;2022-12-28T11:38:00;13.20;;;5.80;;
76597;SDS011;65486;53.144;18.134;2022-12-28T11:45:54;17.10;;;8.20;;
76597;SDS011;65486;53.144;18.134;2022-12-28T11:56:13;13.10;;;7.90;;
76597;SDS011;65486;53.144;18.134;2022-12-28T12:11:55;17.00;;;8.00;;
76597;SDS011;65486;53.144;18.134;2022-12-28T12:14:35;17.00;;;7.60;;
76597;SDS011;65486;53.144;18.134;2022-12-28T12:17:15;11.00;;;5.20;;
76597;SDS011;65486;53.144;18.134;2022-12-28T12:20:06;18.90;;;8.30;;
76597;SDS011;65486;53.144;18.134;2022-12-28T12:23:07;13.50;;;6.20;;
76597;SDS011;65486;53.144;18.134;2022-12-28T12:25:43;17.00;;;8.10;;
76597;SDS011;65486;53.144;18.134;2022-12-28T12:28:39;17.10;;;5.90;;
76597;SDS011;65486;53.144;18.134;2022-12-28T12:31:12;11.40;;;5.40;;
76597;SDS011;65486;53.144;18.134;2022-12-28T12:33:49;15.10;;;7.50;;
76597;SDS011;65486;53.144;18.134;2022-12-28T12:36:42;16.60;;;7.80;;
76597;SDS011;65486;53.144;18.134;2022-12-28T12:39:36;18.30;;;9.40;;
76597;SDS011;65486;53.144;18.134;2022-12-28T12:56:59;14.50;;;7.10;;
76597;SDS011;65486;53.144;18.134;2022-12-28T13:00:07;14.10;;;6.20;;
76597;SDS011;65486;53.144;18.134;2022-12-28T13:05:36;12.90;;;5.70;;
76597;SDS011;65486;53.144;18.134;2022-12-28T13:08:06;14.80;;;5.30;;
76597;SDS011;65486;53.144;18.134;2022-12-28T13:10:51;11.60;;;4.80;;
76597;SDS011;65486;53.144;18.134;2022-12-28T13:13:24;12.60;;;5.40;;
76597;SDS011;65486;53.144;18.134;2022-12-28T13:16:01;9.70;;;4.40;;
76597;SDS011;65486;53.144;18.134;2022-12-28T13:18:30;11.70;;;5.40;;
76597;SDS011;65486;53.144;18.134;2022-12-28T13:21:00;13.40;;;6.00;;
76597;SDS011;65486;53.144;18.134;2022-12-28T13:23:30;10.80;;;5.80;;
76597;SDS011;65486;53.144;18.134;2022-12-28T13:25:59;14.10;;;6.10;;
76597;SDS011;65486;53.144;18.134;2022-12-28T13:28:33;11.90;;;5.00;;
76597;SDS011;65486;53.144;18.134;2022-12-28T13:31:07;7.00;;;3.10;;
76597;SDS011;65486;53.144;18.134;2022-12-28T13:33:57;11.70;;;6.00;;
76597;SDS011;65486;53.144;18.134;2022-12-28T13:36:32;12.80;;;6.00;;
76597;SDS011;65486;53.144;18.134;2022-12-28T13:39:11;12.70;;;6.30;;
76597;SDS011;65486;53.144;18.134;2022-12-28T13:41:49;12.70;;;6.80;;
76597;SDS011;65486;53.144;18.134;2022-12-28T13:49:58;19.00;;;8.30;;
76597;SDS011;65486;53.144;18.134;2022-12-28T13:52:32;14.50;;;6.90;;
76597;SDS011;65486;53.144;18.134;2022-12-28T13:55:05;18.60;;;8.80;;
76597;SDS011;65486;53.144;18.134;2022-12-28T13:57:38;15.30;;;7.40;;
76597;SDS011;65486;53.144;18.134;2022-12-28T14:00:23;13.20;;;6.60;;
76597;SDS011;65486;53.144;18.134;2022-12-28T14:02:53;18.50;;;8.90;;
76597;SDS011;65486;53.144;18.134;2022-12-28T14:05:40;17.60;;;7.70;;
76597;SDS011;65486;53.144;18.134;2022-12-28T14:08:10;17.00;;;8.30;;
76597;SDS011;65486;53.144;18.134;2022-12-28T14:10:38;18.80;;;9.10;;
76597;SDS011;65486;53.144;18.134;2022-12-28T14:13:08;16.30;;;8.30;;
76597;SDS011;65486;53.144;18.134;2022-12-28T14:15:37;14.40;;;7.10;;
76597;SDS011;65486;53.144;18.134;2022-12-28T14:18:04;17.60;;;7.50;;
76597;SDS011;65486;53.144;18.134;2022-12-28T14:20:43;17.90;;;8.40;;
76597;SDS011;65486;53.144;18.134;2022-12-28T14:25:48;16.70;;;7.80;;
76597;SDS011;65486;53.144;18.134;2022-12-28T14:28:20;18.80;;;8.40;;
76597;SDS011;65486;53.144;18.134;2022-12-28T14:30:52;15.00;;;6.70;;
76597;SDS011;65486;53.144;18.134;2022-12-28T14:33:22;19.00;;;8.20;;
76597;SDS011;65486;53.144;18.134;2022-12-28T14:36:01;11.80;;;5.40;;
76597;SDS011;65486;53.144;18.134;2022-12-28T14:38:44;16.90;;;7.70;;
76597;SDS011;65486;53.144;18.134;2022-12-28T14:41:19;20.30;;;8.50;;
76597;SDS011;65486;53.144;18.134;2022-12-28T14:44:20;14.30;;;7.20;;
76597;SDS011;65486;53.144;18.134;2022-12-28T14:46:54;10.50;;;4.70;;
76597;SDS011;65486;53.144;18.134;2022-12-28T14:54:44;20.50;;;7.80;;
76597;SDS011;65486;53.144;18.134;2022-12-28T14:59:55;16.60;;;7.70;;
76597;SDS011;65486;53.144;18.134;2022-12-28T15:08:00;8.30;;;4.10;;
76597;SDS011;65486;53.144;18.134;2022-12-28T15:10:28;11.40;;;5.10;;
76597;SDS011;65486;53.144;18.134;2022-12-28T15:12:56;15.80;;;5.90;;
76597;SDS011;65486;53.144;18.134;2022-12-28T15:15:23;11.90;;;5.60;;
76597;SDS011;65486;53.144;18.134;2022-12-28T15:17:52;14.20;;;6.00;;
76597;SDS011;65486;53.144;18.134;2022-12-28T15:20:19;12.80;;;4.00;;
76597;SDS011;65486;53.144;18.134;2022-12-28T15:22:48;11.50;;;5.20;;
76597;SDS011;65486;53.144;18.134;2022-12-28T15:25:17;9.50;;;4.40;;
76597;SDS011;65486;53.144;18.134;2022-12-28T15:27:47;13.20;;;6.30;;
76597;SDS011;65486;53.144;18.134;2022-12-28T15:30:19;13.80;;;5.70;;
76597;SDS011;65486;53.144;18.134;2022-12-28T15:32:48;13.20;;;6.00;;
76597;SDS011;65486;53.144;18.134;2022-12-28T15:35:15;9.50;;;4.60;;
76597;SDS011;65486;53.144;18.134;2022-12-28T15:37:42;16.00;;;6.90;;
76597;SDS011;65486;53.144;18.134;2022-12-28T15:40:21;14.30;;;6.40;;
76597;SDS011;65486;53.144;18.134;2022-12-28T15:42:49;14.70;;;6.30;;
76597;SDS011;65486;53.144;18.134;2022-12-28T15:45:19;12.40;;;5.30;;
76597;SDS011;65486;53.144;18.134;2022-12-28T15:47:46;13.50;;;6.10;;
76597;SDS011;65486;53.144;18.134;2022-12-28T15:50:13;9.40;;;5.60;;
76597;SDS011;65486;53.144;18.134;2022-12-28T15:52:40;11.40;;;5.20;;
76597;SDS011;65486;53.144;18.134;2022-12-28T15:55:07;10.80;;;4.40;;
76597;SDS011;65486;53.144;18.134;2022-12-28T15:57:34;10.20;;;5.40;;
76597;SDS011;65486;53.144;18.134;2022-12-28T16:00:04;12.30;;;5.00;;
76597;SDS011;65486;53.144;18.134;2022-12-28T16:02:32;6.20;;;3.90;;
76597;SDS011;65486;53.144;18.134;2022-12-28T16:05:00;14.30;;;5.30;;
76597;SDS011;65486;53.144;18.134;2022-12-28T16:07:28;13.30;;;5.20;;
76597;SDS011;65486;53.144;18.134;2022-12-28T16:09:55;15.80;;;7.20;;
76597;SDS011;65486;53.144;18.134;2022-12-28T16:12:25;15.30;;;6.60;;
76597;SDS011;65486;53.144;18.134;2022-12-28T16:14:53;10.80;;;5.60;;
76597;SDS011;65486;53.144;18.134;2022-12-28T16:17:20;13.20;;;6.10;;
76597;SDS011;65486;53.144;18.134;2022-12-28T16:19:46;10.40;;;5.40;;
76597;SDS011;65486;53.144;18.134;2022-12-28T16:22:15;12.60;;;5.00;;
76597;SDS011;65486;53.144;18.134;2022-12-28T16:24:42;10.30;;;4.90;;
76597;SDS011;65486;53.144;18.134;2022-12-28T16:27:09;12.30;;;5.20;;
76597;SDS011;65486;53.144;18.134;2022-12-28T16:29:38;14.40;;;6.30;;
76597;SDS011;65486;53.144;18.134;2022-12-28T16:32:06;14.20;;;6.30;;
76597;SDS011;65486;53.144;18.134;2022-12-28T16:34:33;13.60;;;6.60;;
76597;SDS011;65486;53.144;18.134;2022-12-28T16:37:01;16.20;;;7.80;;
76597;SDS011;65486;53.144;18.134;2022-12-28T16:39:28;17.70;;;6.70;;
76597;SDS011;65486;53.144;18.134;2022-12-28T16:41:55;14.30;;;6.60;;
76597;SDS011;65486;53.144;18.134;2022-12-28T16:44:23;13.90;;;6.30;;
76597;SDS011;65486;53.144;18.134;2022-12-28T16:46:52;12.30;;;5.70;;
76597;SDS011;65486;53.144;18.134;2022-12-28T16:49:24;19.20;;;7.20;;
76597;SDS011;65486;53.144;18.134;2022-12-28T16:51:52;13.50;;;6.90;;
76597;SDS011;65486;53.144;18.134;2022-12-28T16:54:20;17.00;;;6.80;;
76597;SDS011;65486;53.144;18.134;2022-12-28T16:56:48;16.50;;;7.10;;
76597;SDS011;65486;53.144;18.134;2022-12-28T16:59:18;11.50;;;5.40;;
76597;SDS011;65486;53.144;18.134;2022-12-28T17:01:54;13.80;;;7.10;;